sensor_id;sensor_type;location;lat;lon;timestamp;pressure;altitude;pressure_sealevel;temperature;humidity
4273;BME280;63887;53.656;9.810;2023-03-15T00:00:52;100730.88;;;1.32;93.55
4273;BME280;63887;53.656;9.810;2023-03-15T00:03:21;100721.00;;;1.06;94.27
4273;BME280;63887;53.656;9.810;2023-03-15T00:05:48;100726.16;;;1.08;94.80
4273;BME280;63887;53.656;9.810;2023-03-15T00:08:16;100734.59;;;1.16;94.51
4273;BME280;63887;53.656;9.810;2023-03-15T00:10:44;100738.91;;;1.17;93.50
4273;BME280;63887;53.656;9.810;2023-03-15T00:13:11;100742.16;;;1.28;93.15
4273;BME280;63887;53.656;9.810;2023-03-15T00:15:44;100752.41;;;1.34;92.61
4273;BME280;63887;53.656;9.810;2023-03-15T00:18:11;100748.03;;;1.38;92.67
4273;BME280;63887;53.656;9.810;2023-03-15T00:20:39;100759.13;;;0.89;94.80
4273;BME280;63887;53.656;9.810;2023-03-15T00:23:05;100758.25;;;0.92;94.16
4273;BME280;63887;53.656;9.810;2023-03-15T00:25:32;100760.03;;;0.86;95.11
4273;BME280;63887;53.656;9.810;2023-03-15T00:27:58;100755.78;;;0.84;94.59
4273;BME280;63887;53.656;9.810;2023-03-15T00:30:25;100756.44;;;0.98;93.85
4273;BME280;63887;53.656;9.810;2023-03-15T00:32:52;100765.09;;;0.94;94.71
4273;BME280;63887;53.656;9.810;2023-03-15T00:35:19;100763.97;;;1.12;94.78
4273;BME280;63887;53.656;9.810;2023-03-15T00:37:46;100768.38;;;1.04;94.58
4273;BME280;63887;53.656;9.810;2023-03-15T00:40:13;100772.94;;;1.42;93.15
4273;BME280;63887;53.656;9.810;2023-03-15T00:42:40;100772.47;;;1.20;93.06
4273;BME280;63887;53.656;9.810;2023-03-15T00:45:14;100774.31;;;1.10;94.34
4273;BME280;63887;53.656;9.810;2023-03-15T00:47:41;100784.00;;;0.96;94.25
4273;BME280;63887;53.656;9.810;2023-03-15T00:50:08;100789.03;;;1.07;93.79
4273;BME280;63887;53.656;9.810;2023-03-15T00:52:35;100790.25;;;0.81;94.52
4273;BME280;63887;53.656;9.810;2023-03-15T00:55:04;100790.38;;;0.71;96.03
4273;BME280;63887;53.656;9.810;2023-03-15T00:57:31;100792.16;;;0.69;96.86
4273;BME280;63887;53.656;9.810;2023-03-15T00:59:58;100799.50;;;0.96;95.12
4273;BME280;63887;53.656;9.810;2023-03-15T01:02:29;100805.72;;;0.83;95.98
4273;BME280;63887;53.656;9.810;2023-03-15T01:04:55;100809.13;;;0.85;94.96
4273;BME280;63887;53.656;9.810;2023-03-15T01:07:21;100808.22;;;0.87;94.86
4273;BME280;63887;53.656;9.810;2023-03-15T01:09:48;100804.53;;;1.07;94.23
4273;BME280;63887;53.656;9.810;2023-03-15T01:12:16;100815.69;;;1.07;94.67
4273;BME280;63887;53.656;9.810;2023-03-15T01:14:42;100819.06;;;1.12;94.49
4273;BME280;63887;53.656;9.810;2023-03-15T01:17:09;100814.66;;;1.17;94.45
4273;BME280;63887;53.656;9.810;2023-03-15T01:19:35;100815.38;;;1.27;93.55
4273;BME280;63887;53.656;9.810;2023-03-15T01:22:02;100812.38;;;0.98;94.77
4273;BME280;63887;53.656;9.810;2023-03-15T01:24:28;100819.72;;;1.27;93.28
4273;BME280;63887;53.656;9.810;2023-03-15T01:26:54;100820.44;;;1.35;92.88
4273;BME280;63887;53.656;9.810;2023-03-15T01:29:22;100822.19;;;1.33;93.98
4273;BME280;63887;53.656;9.810;2023-03-15T01:31:49;100828.38;;;1.24;94.05
4273;BME280;63887;53.656;9.810;2023-03-15T01:34:15;100829.81;;;1.40;93.44
4273;BME280;63887;53.656;9.810;2023-03-15T01:36:41;100829.28;;;1.18;94.20
4273;BME280;63887;53.656;9.810;2023-03-15T01:39:08;100829.59;;;0.99;94.95
4273;BME280;63887;53.656;9.810;2023-03-15T01:41:35;100832.72;;;1.21;95.47
4273;BME280;63887;53.656;9.810;2023-03-15T01:44:02;100834.97;;;1.42;95.65
4273;BME280;63887;53.656;9.810;2023-03-15T01:46:30;100846.50;;;1.21;95.71
4273;BME280;63887;53.656;9.810;2023-03-15T01:49:01;100837.94;;;1.16;95.25
4273;BME280;63887;53.656;9.810;2023-03-15T01:51:34;100837.00;;;1.23;95.29
4273;BME280;63887;53.656;9.810;2023-03-15T01:54:06;100840.63;;;1.10;96.00
4273;BME280;63887;53.656;9.810;2023-03-15T01:56:35;100848.66;;;0.90;96.95
4273;BME280;63887;53.656;9.810;2023-03-15T01:59:05;100850.31;;;0.96;97.12
4273;BME280;63887;53.656;9.810;2023-03-15T02:01:35;100848.56;;;0.98;96.88
4273;BME280;63887;53.656;9.810;2023-03-15T02:04:11;100849.19;;;1.13;96.68
4273;BME280;63887;53.656;9.810;2023-03-15T02:06:41;100849.09;;;1.18;95.43
4273;BME280;63887;53.656;9.810;2023-03-15T02:09:13;100855.34;;;1.03;96.01
4273;BME280;63887;53.656;9.810;2023-03-15T02:11:41;100862.78;;;1.26;95.82
4273;BME280;63887;53.656;9.810;2023-03-15T02:14:10;100861.22;;;1.14;96.89
4273;BME280;63887;53.656;9.810;2023-03-15T02:16:38;100869.78;;;1.16;95.98
4273;BME280;63887;53.656;9.810;2023-03-15T02:19:05;100866.34;;;1.16;94.90
4273;BME280;63887;53.656;9.810;2023-03-15T02:21:43;100869.03;;;1.10;95.80
4273;BME280;63887;53.656;9.810;2023-03-15T02:24:21;100874.81;;;1.27;95.55
4273;BME280;63887;53.656;9.810;2023-03-15T02:26:53;100869.03;;;1.10;95.11
4273;BME280;63887;53.656;9.810;2023-03-15T02:29:23;100868.41;;;0.94;95.42
4273;BME280;63887;53.656;9.810;2023-03-15T02:31:51;100873.91;;;1.30;94.68
4273;BME280;63887;53.656;9.810;2023-03-15T02:34:17;100880.97;;;1.17;95.71
4273;BME280;63887;53.656;9.810;2023-03-15T02:36:49;100877.53;;;1.18;95.83
4273;BME280;63887;53.656;9.810;2023-03-15T02:39:18;100881.84;;;1.17;95.91
4273;BME280;63887;53.656;9.810;2023-03-15T02:41:48;100886.97;;;1.19;96.27
4273;BME280;63887;53.656;9.810;2023-03-15T02:44:18;100897.66;;;0.95;95.80
4273;BME280;63887;53.656;9.810;2023-03-15T02:46:50;100902.81;;;0.96;96.52
4273;BME280;63887;53.656;9.810;2023-03-15T02:49:21;100887.63;;;1.36;95.75
4273;BME280;63887;53.656;9.810;2023-03-15T02:51:49;100898.22;;;1.16;95.08
4273;BME280;63887;53.656;9.810;2023-03-15T02:54:15;100896.41;;;1.23;96.09
4273;BME280;63887;53.656;9.810;2023-03-15T02:56:41;100904.09;;;1.28;94.96
4273;BME280;63887;53.656;9.810;2023-03-15T02:59:08;100905.47;;;0.88;95.87
4273;BME280;63887;53.656;9.810;2023-03-15T03:01:37;100913.75;;;1.15;95.71
4273;BME280;63887;53.656;9.810;2023-03-15T03:04:05;100914.59;;;1.15;95.46
4273;BME280;63887;53.656;9.810;2023-03-15T03:06:31;100921.75;;;0.95;96.03
4273;BME280;63887;53.656;9.810;2023-03-15T03:08:58;100921.88;;;1.47;95.50
4273;BME280;63887;53.656;9.810;2023-03-15T03:11:28;100944.50;;;1.33;94.40
4273;BME280;63887;53.656;9.810;2023-03-15T03:13:55;100951.16;;;1.48;95.05
4273;BME280;63887;53.656;9.810;2023-03-15T03:16:21;100963.81;;;1.69;93.13
4273;BME280;63887;53.656;9.810;2023-03-15T03:18:48;100964.97;;;2.04;91.47
4273;BME280;63887;53.656;9.810;2023-03-15T03:21:16;100979.63;;;2.05;90.73
4273;BME280;63887;53.656;9.810;2023-03-15T03:23:43;100994.81;;;1.69;91.40
4273;BME280;63887;53.656;9.810;2023-03-15T03:26:12;100978.41;;;1.09;93.52
4273;BME280;63887;53.656;9.810;2023-03-15T03:28:41;100986.94;;;1.14;95.27
4273;BME280;63887;53.656;9.810;2023-03-15T03:31:14;100991.44;;;0.98;95.87
4273;BME280;63887;53.656;9.810;2023-03-15T03:33:41;100997.59;;;0.89;96.10
4273;BME280;63887;53.656;9.810;2023-03-15T03:36:07;101007.44;;;1.28;96.40
4273;BME280;63887;53.656;9.810;2023-03-15T03:38:39;101013.03;;;0.94;95.99
4273;BME280;63887;53.656;9.810;2023-03-15T03:41:05;101011.06;;;1.14;97.14
4273;BME280;63887;53.656;9.810;2023-03-15T03:43:31;101015.44;;;1.08;96.83
4273;BME280;63887;53.656;9.810;2023-03-15T03:45:58;101012.09;;;0.98;96.62
4273;BME280;63887;53.656;9.810;2023-03-15T03:48:24;101023.47;;;0.82;97.48
4273;BME280;63887;53.656;9.810;2023-03-15T03:50:51;101024.16;;;0.98;97.42
4273;BME280;63887;53.656;9.810;2023-03-15T03:53:17;101026.13;;;0.74;97.10
4273;BME280;63887;53.656;9.810;2023-03-15T03:55:45;101015.88;;;0.68;97.33
4273;BME280;63887;53.656;9.810;2023-03-15T03:58:11;101016.72;;;0.69;98.31
4273;BME280;63887;53.656;9.810;2023-03-15T04:00:38;101013.50;;;0.47;98.90
4273;BME280;63887;53.656;9.810;2023-03-15T04:03:06;101016.03;;;0.53;99.03
4273;BME280;63887;53.656;9.810;2023-03-15T04:05:33;101011.78;;;0.47;99.20
4273;BME280;63887;53.656;9.810;2023-03-15T04:08:00;101014.28;;;0.55;98.93
4273;BME280;63887;53.656;9.810;2023-03-15T04:10:26;101016.97;;;0.43;99.33
4273;BME280;63887;53.656;9.810;2023-03-15T04:12:55;101019.53;;;0.44;99.29
4273;BME280;63887;53.656;9.810;2023-03-15T04:15:23;101024.75;;;0.38;99.77
4273;BME280;63887;53.656;9.810;2023-03-15T04:17:50;101030.78;;;0.37;100.00
4273;BME280;63887;53.656;9.810;2023-03-15T04:20:20;101041.19;;;0.28;100.00
4273;BME280;63887;53.656;9.810;2023-03-15T04:22:47;101042.03;;;0.27;100.00
4273;BME280;63887;53.656;9.810;2023-03-15T04:25:13;101055.88;;;0.18;100.00
4273;BME280;63887;53.656;9.810;2023-03-15T04:27:40;101068.81;;;0.12;100.00
4273;BME280;63887;53.656;9.810;2023-03-15T04:30:09;101071.38;;;0.12;100.00
4273;BME280;63887;53.656;9.810;2023-03-15T04:32:36;101071.38;;;0.15;100.00
4273;BME280;63887;53.656;9.810;2023-03-15T04:35:03;101085.03;;;0.26;100.00
4273;BME280;63887;53.656;9.810;2023-03-15T04:37:30;101081.59;;;0.31;100.00
4273;BME280;63887;53.656;9.810;2023-03-15T04:39:57;101075.41;;;0.50;100.00
4273;BME280;63887;53.656;9.810;2023-03-15T04:42:23;101076.13;;;0.67;99.34
4273;BME280;63887;53.656;9.810;2023-03-15T04:44:50;101072.81;;;0.51;98.98
4273;BME280;63887;53.656;9.810;2023-03-15T04:47:19;101077.31;;;0.25;99.25
4273;BME280;63887;53.656;9.810;2023-03-15T04:49:46;101077.38;;;0.14;99.45
4273;BME280;63887;53.656;9.810;2023-03-15T04:52:13;101081.72;;;0.11;100.00
4273;BME280;63887;53.656;9.810;2023-03-15T04:54:39;101079.97;;;0.14;100.00
4273;BME280;63887;53.656;9.810;2023-03-15T04:57:06;101089.44;;;0.15;100.00
4273;BME280;63887;53.656;9.810;2023-03-15T04:59:32;101096.41;;;0.03;100.00
4273;BME280;63887;53.656;9.810;2023-03-15T05:01:59;101096.31;;;0.13;100.00
4273;BME280;63887;53.656;9.810;2023-03-15T05:04:26;101104.97;;;0.08;100.00
4273;BME280;63887;53.656;9.810;2023-03-15T05:06:53;101106.66;;;0.10;99.92
4273;BME280;63887;53.656;9.810;2023-03-15T05:09:19;101115.22;;;0.18;100.00
4273;BME280;63887;53.656;9.810;2023-03-15T05:11:46;101122.13;;;0.10;99.93
4273;BME280;63887;53.656;9.810;2023-03-15T05:14:12;101121.34;;;0.02;100.00
4273;BME280;63887;53.656;9.810;2023-03-15T05:16:39;101128.25;;;-0.08;100.00
4273;BME280;63887;53.656;9.810;2023-03-15T05:19:07;101127.34;;;0.04;100.00
4273;BME280;63887;53.656;9.810;2023-03-15T05:21:35;101133.38;;;0.02;100.00
4273;BME280;63887;53.656;9.810;2023-03-15T05:24:01;101129.84;;;0.12;100.00
4273;BME280;63887;53.656;9.810;2023-03-15T05:26:28;101140.16;;;0.15;100.00
4273;BME280;63887;53.656;9.810;2023-03-15T05:28:54;101151.47;;;-0.09;99.41
4273;BME280;63887;53.656;9.810;2023-03-15T05:31:21;101157.44;;;-0.01;99.77
4273;BME280;63887;53.656;9.810;2023-03-15T05:33:47;101164.34;;;0.00;99.87
4273;BME280;63887;53.656;9.810;2023-03-15T05:36:14;101157.34;;;0.14;99.48
4273;BME280;63887;53.656;9.810;2023-03-15T05:38:42;101156.66;;;-0.18;99.68
4273;BME280;63887;53.656;9.810;2023-03-15T05:41:09;101163.47;;;-0.07;99.83
4273;BME280;63887;53.656;9.810;2023-03-15T05:43:35;101168.59;;;-0.02;100.00
4273;BME280;63887;53.656;9.810;2023-03-15T05:46:02;101172.06;;;-0.05;99.81
4273;BME280;63887;53.656;9.810;2023-03-15T05:48:28;101173.84;;;-0.13;100.00
4273;BME280;63887;53.656;9.810;2023-03-15T05:50:56;101181.59;;;-0.23;99.75
4273;BME280;63887;53.656;9.810;2023-03-15T05:53:23;101177.19;;;0.05;99.64
4273;BME280;63887;53.656;9.810;2023-03-15T05:55:50;101185.75;;;0.08;99.29
4273;BME280;63887;53.656;9.810;2023-03-15T05:58:17;101191.78;;;0.09;99.78
4273;BME280;63887;53.656;9.810;2023-03-15T06:00:43;101191.81;;;0.03;99.23
4273;BME280;63887;53.656;9.810;2023-03-15T06:03:10;101190.91;;;0.16;99.13
4273;BME280;63887;53.656;9.810;2023-03-15T06:05:36;101204.59;;;0.22;99.25
4273;BME280;63887;53.656;9.810;2023-03-15T06:08:03;101209.78;;;0.21;98.72
4273;BME280;63887;53.656;9.810;2023-03-15T06:10:29;101211.41;;;0.39;98.09
4273;BME280;63887;53.656;9.810;2023-03-15T06:12:57;101214.00;;;0.29;98.10
4273;BME280;63887;53.656;9.810;2023-03-15T06:15:23;101209.53;;;0.64;97.09
4273;BME280;63887;53.656;9.810;2023-03-15T06:17:50;101217.41;;;0.41;97.10
4273;BME280;63887;53.656;9.810;2023-03-15T06:20:17;101226.88;;;0.37;97.57
4273;BME280;63887;53.656;9.810;2023-03-15T06:22:43;101226.84;;;0.42;98.69
4273;BME280;63887;53.656;9.810;2023-03-15T06:25:10;101222.34;;;0.77;97.12
4273;BME280;63887;53.656;9.810;2023-03-15T06:27:36;101228.25;;;0.95;96.49
4273;BME280;63887;53.656;9.810;2023-03-15T06:30:06;101232.50;;;0.99;96.41
4273;BME280;63887;53.656;9.810;2023-03-15T06:32:32;101230.53;;;1.28;95.36
4273;BME280;63887;53.656;9.810;2023-03-15T06:34:59;101227.78;;;1.46;95.80
4273;BME280;63887;53.656;9.810;2023-03-15T06:37:25;101230.03;;;1.77;92.59
4273;BME280;63887;53.656;9.810;2023-03-15T06:39:52;101233.66;;;1.64;93.27
4273;BME280;63887;53.656;9.810;2023-03-15T06:42:18;101231.31;;;1.39;93.80
4273;BME280;63887;53.656;9.810;2023-03-15T06:44:45;101229.53;;;1.43;93.87
4273;BME280;63887;53.656;9.810;2023-03-15T06:47:13;101236.06;;;1.79;92.22
4273;BME280;63887;53.656;9.810;2023-03-15T06:49:39;101236.28;;;1.58;93.30
4273;BME280;63887;53.656;9.810;2023-03-15T06:52:06;101244.66;;;1.83;91.92
4273;BME280;63887;53.656;9.810;2023-03-15T06:54:33;101250.81;;;1.71;92.10
4273;BME280;63887;53.656;9.810;2023-03-15T06:56:59;101258.53;;;1.74;93.74
4273;BME280;63887;53.656;9.810;2023-03-15T06:59:26;101265.66;;;1.51;93.48
4273;BME280;63887;53.656;9.810;2023-03-15T07:01:52;101290.78;;;1.33;95.17
4273;BME280;63887;53.656;9.810;2023-03-15T07:04:20;101310.03;;;1.97;92.94
4273;BME280;63887;53.656;9.810;2023-03-15T07:06:47;101319.72;;;1.75;92.15
4273;BME280;63887;53.656;9.810;2023-03-15T07:09:13;101330.16;;;1.67;93.44
4273;BME280;63887;53.656;9.810;2023-03-15T07:11:40;101325.84;;;1.63;93.36
4273;BME280;63887;53.656;9.810;2023-03-15T07:14:06;101322.56;;;1.49;94.25
4273;BME280;63887;53.656;9.810;2023-03-15T07:16:32;101314.78;;;1.51;94.42
4273;BME280;63887;53.656;9.810;2023-03-15T07:18:59;101327.72;;;1.47;94.22
4273;BME280;63887;53.656;9.810;2023-03-15T07:21:27;101323.47;;;1.42;95.24
4273;BME280;63887;53.656;9.810;2023-03-15T07:23:54;101323.75;;;1.01;95.92
4273;BME280;63887;53.656;9.810;2023-03-15T07:26:20;101308.78;;;1.44;95.41
4273;BME280;63887;53.656;9.810;2023-03-15T07:28:47;101317.47;;;1.34;95.65
4273;BME280;63887;53.656;9.810;2023-03-15T07:31:13;101323.59;;;1.24;95.06
4273;BME280;63887;53.656;9.810;2023-03-15T07:33:40;101322.78;;;1.20;95.94
4273;BME280;63887;53.656;9.810;2023-03-15T07:36:07;101334.78;;;1.27;96.14
4273;BME280;63887;53.656;9.810;2023-03-15T07:38:35;101341.72;;;1.21;95.36
4273;BME280;63887;53.656;9.810;2023-03-15T07:41:03;101333.94;;;1.25;96.00
4273;BME280;63887;53.656;9.810;2023-03-15T07:43:30;101352.81;;;1.33;96.29
4273;BME280;63887;53.656;9.810;2023-03-15T07:45:57;101345.06;;;1.36;96.61
4273;BME280;63887;53.656;9.810;2023-03-15T07:48:23;101346.50;;;1.69;95.48
4273;BME280;63887;53.656;9.810;2023-03-15T07:50:50;101344.75;;;1.71;94.97
4273;BME280;63887;53.656;9.810;2023-03-15T07:53:16;101345.56;;;1.75;94.17
4273;BME280;63887;53.656;9.810;2023-03-15T07:55:45;101349.50;;;2.16;92.58
4273;BME280;63887;53.656;9.810;2023-03-15T07:58:12;101344.25;;;2.20;91.92
4273;BME280;63887;53.656;9.810;2023-03-15T08:00:39;101350.22;;;2.28;90.13
4273;BME280;63887;53.656;9.810;2023-03-15T08:03:05;101351.22;;;2.15;92.49
4273;BME280;63887;53.656;9.810;2023-03-15T08:05:32;101354.72;;;2.11;92.14
4273;BME280;63887;53.656;9.810;2023-03-15T08:07:58;101356.31;;;2.21;92.77
4273;BME280;63887;53.656;9.810;2023-03-15T08:10:25;101361.25;;;2.44;92.41
4273;BME280;63887;53.656;9.810;2023-03-15T08:12:53;101360.97;;;2.68;90.66
4273;BME280;63887;53.656;9.810;2023-03-15T08:15:20;101374.69;;;2.75;91.22
4273;BME280;63887;53.656;9.810;2023-03-15T08:17:47;101379.59;;;2.96;90.33
4273;BME280;63887;53.656;9.810;2023-03-15T08:20:14;101384.19;;;2.75;90.64
4273;BME280;63887;53.656;9.810;2023-03-15T08:22:42;101391.00;;;2.85;90.38
4273;BME280;63887;53.656;9.810;2023-03-15T08:25:11;101390.53;;;3.18;88.09
4273;BME280;63887;53.656;9.810;2023-03-15T08:27:38;101397.03;;;2.85;89.09
4273;BME280;63887;53.656;9.810;2023-03-15T08:30:07;101399.59;;;2.87;90.13
4273;BME280;63887;53.656;9.810;2023-03-15T08:32:33;101398.09;;;2.66;91.77
4273;BME280;63887;53.656;9.810;2023-03-15T08:35:00;101402.44;;;2.64;90.64
4273;BME280;63887;53.656;9.810;2023-03-15T08:37:26;101407.88;;;3.13;90.24
4273;BME280;63887;53.656;9.810;2023-03-15T08:39:53;101410.38;;;3.19;89.78
4273;BME280;63887;53.656;9.810;2023-03-15T08:42:25;101410.16;;;3.35;89.17
4273;BME280;63887;53.656;9.810;2023-03-15T08:44:51;101414.44;;;3.93;88.39
4273;BME280;63887;53.656;9.810;2023-03-15T08:47:19;101418.97;;;4.29;86.14
4273;BME280;63887;53.656;9.810;2023-03-15T08:49:45;101445.72;;;3.83;86.14
4273;BME280;63887;53.656;9.810;2023-03-15T08:52:12;101464.97;;;3.70;86.19
4273;BME280;63887;53.656;9.810;2023-03-15T08:54:38;101479.88;;;3.57;86.30
4273;BME280;63887;53.656;9.810;2023-03-15T08:57:05;101467.28;;;3.30;84.47
4273;BME280;63887;53.656;9.810;2023-03-15T08:59:31;101464.75;;;2.53;86.76
4273;BME280;63887;53.656;9.810;2023-03-15T09:01:58;101461.56;;;2.25;90.28
4273;BME280;63887;53.656;9.810;2023-03-15T09:04:26;101443.88;;;2.64;88.38
4273;BME280;63887;53.656;9.810;2023-03-15T09:06:53;101438.19;;;2.31;90.19
4273;BME280;63887;53.656;9.810;2023-03-15T09:09:19;101451.28;;;2.16;91.29
4273;BME280;63887;53.656;9.810;2023-03-15T09:11:46;101456.03;;;2.60;90.38
4273;BME280;63887;53.656;9.810;2023-03-15T09:14:12;101455.69;;;2.03;89.68
4273;BME280;63887;53.656;9.810;2023-03-15T09:16:39;101456.53;;;2.08;91.27
4273;BME280;63887;53.656;9.810;2023-03-15T09:19:05;101461.00;;;2.79;88.28
4273;BME280;63887;53.656;9.810;2023-03-15T09:21:33;101464.88;;;2.39;91.35
4273;BME280;63887;53.656;9.810;2023-03-15T09:23:59;101469.50;;;2.90;90.78
4273;BME280;63887;53.656;9.810;2023-03-15T09:26:26;101470.13;;;2.30;92.35
4273;BME280;63887;53.656;9.810;2023-03-15T09:28:52;101459.78;;;2.30;92.93
4273;BME280;63887;53.656;9.810;2023-03-15T09:31:19;101459.09;;;2.93;90.19
4273;BME280;63887;53.656;9.810;2023-03-15T09:33:45;101447.75;;;3.03;91.32
4273;BME280;63887;53.656;9.810;2023-03-15T09:36:12;101470.06;;;3.16;87.82
4273;BME280;63887;53.656;9.810;2023-03-15T09:38:41;101467.66;;;3.01;90.95
4273;BME280;63887;53.656;9.810;2023-03-15T09:41:16;101471.16;;;2.95;91.99
4273;BME280;63887;53.656;9.810;2023-03-15T09:43:56;101476.75;;;2.59;92.09
4273;BME280;63887;53.656;9.810;2023-03-15T09:46:26;101482.31;;;3.02;90.77
4273;BME280;63887;53.656;9.810;2023-03-15T09:48:57;101499.00;;;2.78;91.28
4273;BME280;63887;53.656;9.810;2023-03-15T09:51:33;101496.81;;;2.37;91.05
4273;BME280;63887;53.656;9.810;2023-03-15T09:54:09;101504.38;;;2.60;91.72
4273;BME280;63887;53.656;9.810;2023-03-15T09:56:39;101503.06;;;2.15;91.73
4273;BME280;63887;53.656;9.810;2023-03-15T09:59:10;101498.91;;;1.95;93.31
4273;BME280;63887;53.656;9.810;2023-03-15T10:01:41;101494.56;;;1.97;95.02
4273;BME280;63887;53.656;9.810;2023-03-15T10:04:11;101496.84;;;2.34;94.32
4273;BME280;63887;53.656;9.810;2023-03-15T10:06:42;101496.88;;;2.29;94.06
4273;BME280;63887;53.656;9.810;2023-03-15T10:09:16;101496.84;;;2.34;93.49
4273;BME280;63887;53.656;9.810;2023-03-15T10:11:49;101495.59;;;2.73;93.81
4273;BME280;63887;53.656;9.810;2023-03-15T10:14:26;101493.38;;;3.16;94.01
4273;BME280;63887;53.656;9.810;2023-03-15T10:16:58;101490.00;;;3.10;93.47
4273;BME280;63887;53.656;9.810;2023-03-15T10:19:33;101482.66;;;3.41;92.97
4273;BME280;63887;53.656;9.810;2023-03-15T10:22:17;101490.03;;;3.73;90.97
4273;BME280;63887;53.656;9.810;2023-03-15T10:24:50;101490.56;;;3.93;88.61
4273;BME280;63887;53.656;9.810;2023-03-15T10:27:20;101483.16;;;3.69;89.25
4273;BME280;63887;53.656;9.810;2023-03-15T10:29:48;101485.97;;;4.10;89.77
4273;BME280;63887;53.656;9.810;2023-03-15T10:32:17;101498.63;;;4.29;87.47
4273;BME280;63887;53.656;9.810;2023-03-15T10:34:47;101492.97;;;4.05;87.81
4273;BME280;63887;53.656;9.810;2023-03-15T10:37:14;101504.06;;;4.13;86.89
4273;BME280;63887;53.656;9.810;2023-03-15T10:39:43;101503.53;;;3.95;85.24
4273;BME280;63887;53.656;9.810;2023-03-15T10:42:25;101498.59;;;3.78;85.05
4273;BME280;63887;53.656;9.810;2023-03-15T10:44:51;101499.75;;;3.58;87.49
4273;BME280;63887;53.656;9.810;2023-03-15T10:47:19;101500.53;;;3.62;88.11
4273;BME280;63887;53.656;9.810;2023-03-15T10:49:46;101500.91;;;3.35;87.77
4273;BME280;63887;53.656;9.810;2023-03-15T10:52:26;101510.22;;;3.51;88.98
4273;BME280;63887;53.656;9.810;2023-03-15T10:54:53;101518.78;;;3.56;88.81
4273;BME280;63887;53.656;9.810;2023-03-15T10:57:21;101522.22;;;3.56;88.90
4273;BME280;63887;53.656;9.810;2023-03-15T10:59:59;101523.31;;;3.39;87.47
4273;BME280;63887;53.656;9.810;2023-03-15T11:02:48;101517.88;;;3.57;87.85
4273;BME280;63887;53.656;9.810;2023-03-15T11:05:16;101530.19;;;4.04;88.37
4273;BME280;63887;53.656;9.810;2023-03-15T11:07:53;101535.91;;;4.26;87.54
4273;BME280;63887;53.656;9.810;2023-03-15T11:10:21;101536.78;;;4.25;83.66
4273;BME280;63887;53.656;9.810;2023-03-15T11:12:48;101543.66;;;4.28;83.81
4273;BME280;63887;53.656;9.810;2023-03-15T11:15:17;101541.25;;;4.15;84.31
4273;BME280;63887;53.656;9.810;2023-03-15T11:17:46;101548.72;;;4.37;82.52
4273;BME280;63887;53.656;9.810;2023-03-15T11:20:22;101545.16;;;4.42;81.12
4273;BME280;63887;53.656;9.810;2023-03-15T11:22:54;101544.00;;;4.59;81.40
4273;BME280;63887;53.656;9.810;2023-03-15T11:25:25;101538.44;;;4.80;79.56
4273;BME280;63887;53.656;9.810;2023-03-15T11:27:54;101539.94;;;5.35;79.21
4273;BME280;63887;53.656;9.810;2023-03-15T11:30:26;101573.09;;;5.25;76.73
4273;BME280;63887;53.656;9.810;2023-03-15T11:32:54;101599.94;;;4.81;78.81
4273;BME280;63887;53.656;9.810;2023-03-15T11:35:23;101606.78;;;4.31;82.99
4273;BME280;63887;53.656;9.810;2023-03-15T11:37:56;101602.88;;;4.06;82.94
4273;BME280;63887;53.656;9.810;2023-03-15T11:40:29;101603.28;;;3.75;85.32
4273;BME280;63887;53.656;9.810;2023-03-15T11:43:00;101598.84;;;3.82;84.61
4273;BME280;63887;53.656;9.810;2023-03-15T11:45:34;101589.53;;;3.67;86.11
4273;BME280;63887;53.656;9.810;2023-03-15T11:48:06;101593.13;;;3.57;87.19
4273;BME280;63887;53.656;9.810;2023-03-15T11:50:36;101589.16;;;3.30;87.76
4273;BME280;63887;53.656;9.810;2023-03-15T11:53:04;101589.94;;;3.35;88.17
4273;BME280;63887;53.656;9.810;2023-03-15T11:55:32;101588.19;;;3.37;86.31
4273;BME280;63887;53.656;9.810;2023-03-15T11:58:27;101583.78;;;3.45;86.39
4273;BME280;63887;53.656;9.810;2023-03-15T12:01:00;101587.50;;;3.21;87.70
4273;BME280;63887;53.656;9.810;2023-03-15T12:03:31;101591.94;;;3.10;88.21
4273;BME280;63887;53.656;9.810;2023-03-15T12:06:03;101587.44;;;3.27;87.71
4273;BME280;63887;53.656;9.810;2023-03-15T12:08:44;101578.56;;;3.47;88.97
4273;BME280;63887;53.656;9.810;2023-03-15T12:11:36;101588.78;;;3.61;86.90
4273;BME280;63887;53.656;9.810;2023-03-15T12:14:04;101576.66;;;3.61;86.44
4273;BME280;63887;53.656;9.810;2023-03-15T12:16:38;101583.31;;;3.80;85.04
4273;BME280;63887;53.656;9.810;2023-03-15T12:19:09;101584.94;;;3.89;81.60
4273;BME280;63887;53.656;9.810;2023-03-15T12:21:38;101585.84;;;3.85;79.31
4273;BME280;63887;53.656;9.810;2023-03-15T12:24:15;101583.34;;;3.77;81.24
4273;BME280;63887;53.656;9.810;2023-03-15T12:26:44;101586.69;;;3.85;78.93
4273;BME280;63887;53.656;9.810;2023-03-15T12:29:14;101585.81;;;3.86;79.33
4273;BME280;63887;53.656;9.810;2023-03-15T12:31:49;101594.34;;;3.96;77.23
4273;BME280;63887;53.656;9.810;2023-03-15T12:34:23;101595.06;;;4.06;80.43
4273;BME280;63887;53.656;9.810;2023-03-15T12:36:52;101592.75;;;4.43;77.07
4273;BME280;63887;53.656;9.810;2023-03-15T12:39:38;101600.38;;;4.55;78.08
4273;BME280;63887;53.656;9.810;2023-03-15T12:42:06;101589.69;;;4.72;75.51
4273;BME280;63887;53.656;9.810;2023-03-15T12:44:39;101600.06;;;4.72;76.68
4273;BME280;63887;53.656;9.810;2023-03-15T12:47:08;101593.88;;;4.81;74.69
4273;BME280;63887;53.656;9.810;2023-03-15T12:49:38;101599.72;;;4.41;75.35
4273;BME280;63887;53.656;9.810;2023-03-15T12:52:23;101601.75;;;4.22;75.09
4273;BME280;63887;53.656;9.810;2023-03-15T12:54:54;101608.38;;;4.41;76.97
4273;BME280;63887;53.656;9.810;2023-03-15T12:57:26;101602.28;;;4.42;75.80
4273;BME280;63887;53.656;9.810;2023-03-15T12:59:54;101605.69;;;4.47;76.11
4273;BME280;63887;53.656;9.810;2023-03-15T13:02:28;101608.72;;;4.72;74.37
4273;BME280;63887;53.656;9.810;2023-03-15T13:05:16;101613.97;;;4.71;75.46
4273;BME280;63887;53.656;9.810;2023-03-15T13:07:56;101602.38;;;4.89;72.46
4273;BME280;63887;53.656;9.810;2023-03-15T13:10:50;101597.31;;;4.83;72.94
4273;BME280;63887;53.656;9.810;2023-03-15T13:13:28;101606.66;;;4.93;71.84
4273;BME280;63887;53.656;9.810;2023-03-15T13:16:16;101601.53;;;4.88;71.19
4273;BME280;63887;53.656;9.810;2023-03-15T13:18:54;101603.84;;;5.03;70.88